Atkins, Virginia
Current Conditions -  °F | °C
As of 5:15 PM on Friday 24 Oct 2014 (Local Time) from KMKJ Reporting Station
Clear Clear  
Wind Chill: 62°   Ceiling: Unl
Heat Index: 62°   Visibility: 10mi
Dew Point: 35°   Wind: 12mph
Humidity: 36%   Direction: 280°W
Pressure: 30.05"   Gusts: NA
Location:  36.87°N, 81.4°W
Report Text: KMKJ 242115Z AUTO 28010KT 10SM CLR 17/02 A3005 RMK AO2 T01680016
Loading
Personal Weather Stations






























Interactive Weather Map
Tropical Storm Tracking
New forecast layout! Learn more

10-Day Weather Forecast

Advertisements
Track Severe Weather on mobile